Terminal Aerodrome Forecast
Issued by NWS Grand Rapids, MI

Home | Current Version | Previous Version | Text Only | Print | Product List | Glossary On
Versions: 1 2 3 4 5 6 7 8 9 10 11 12 13 14 15 16 17 18
000
FTUS43 KGRR 290520
TAFGRR
TAF
KGRR 290520Z 2906/3006 18008KT P6SM VCSH BKN070
     FM291400 23012G22KT P6SM VCSH BKN060
     FM291800 25013G23KT P6SM VCTS BKN050CB
     FM300000 25012KT P6SM BKN100=

USA.gov is the U.S. government's official web portal to all federal, state and local government web resources and services.